Time;durP1;ratioP1;P1;durP2;ratioP2;P2;SDS_P1;SDS_P2;PMS_P1;PMS_P2;Temp;Humidity;BMP_temperature;BMP_pressure;BME280_temperature;BME280_humidity;BME280_pressure;Samples;Min_cycle;Max_cycle;Signal;HPM_P1;HPM_P2
2022/09/25 00:02:00;;;;;;;4.00;3.10;;;;;;;7.36;84.48;99405.21;109431;1274;22536;-67
2022/09/25 00:04:27;;;;;;;;;;;;;;;7.34;84.62;99403.84;109322;1274;138452;-67
2022/09/25 00:06:53;;;;;;;6.10;2.60;;;;;;;7.34;84.55;99406.27;109445;1273;22541;-66
2022/09/25 00:09:22;;;;;;;4.60;2.50;;;;;;;7.32;84.81;99409.88;109451;1272;23288;-67
2022/09/25 00:11:49;;;;;;;5.40;2.10;;;;;;;7.31;84.64;99408.28;109300;1274;138616;-67
2022/09/25 00:14:16;;;;;;;4.30;2.60;;;;;;;7.31;84.79;99408.37;109464;1273;22548;-67
2022/09/25 00:16:43;;;;;;;;;;;;;;;7.29;84.80;99407.14;109293;1274;138499;-67
2022/09/25 00:22:00;;;;;;;3.80;2.40;;;;;;;7.26;84.72;99408.37;109173;1274;142040;-67
2022/09/25 00:24:27;;;;;;;3.20;2.90;;;;;;;7.25;84.93;99411.22;109428;1274;22429;-67
2022/09/25 00:26:54;;;;;;;;;;;;;;;7.24;85.04;99410.33;109423;1274;22492;-67
2022/09/25 00:29:20;;;;;;;5.10;2.60;;;;;;;7.22;84.83;99406.33;109342;1274;126032;-67
2022/09/25 00:31:47;;;;;;;;;;;;;;;7.21;84.89;99412.29;109429;1271;22564;-67
2022/09/25 00:34:14;;;;;;;4.30;3.10;;;;;;;7.19;84.91;99408.98;109307;1274;124527;-65
2022/09/25 00:36:41;;;;;;;3.80;3.00;;;;;;;7.19;85.30;99407.86;109436;1274;22482;-66
2022/09/25 00:39:07;;;;;;;;;;;;;;;7.19;85.07;99407.90;109472;1273;22566;-67
2022/09/25 00:41:34;;;;;;;4.30;3.00;;;;;;;7.17;84.94;99410.23;109325;1273;124316;-66
2022/09/25 00:44:01;;;;;;;;;;;;;;;7.15;84.82;99412.14;109446;1274;22689;-66
2022/09/25 00:46:37;;;;;;;7.60;4.20;;;;;;;7.13;84.98;99411.55;109327;1274;126170;-66
2022/09/25 00:49:05;;;;;;;6.10;3.30;;;;;;;7.11;84.80;99411.67;109406;1274;22503;-66
2022/09/25 00:51:40;;;;;;;5.30;4.00;;;;;;;7.08;84.83;99411.39;109403;1274;23479;-66
2022/09/25 00:54:14;;;;;;;7.80;3.90;;;;;;;7.07;84.79;99411.52;109175;1274;138034;-67
2022/09/25 00:56:43;;;;;;;4.50;3.20;;;;;;;7.05;85.20;99412.34;109359;1274;23161;-67
2022/09/25 00:59:12;;;;;;;5.20;3.90;;;;;;;7.03;85.07;99410.70;109191;1274;138818;-67
2022/09/25 01:01:39;;;;;;;5.50;3.60;;;;;;;7.02;85.18;99411.05;109264;1274;22394;-67
2022/09/25 01:04:06;;;;;;;6.70;4.20;;;;;;;7.01;85.05;99409.41;109192;1274;140598;-67
2022/09/25 01:06:33;;;;;;;7.10;3.90;;;;;;;6.99;85.06;99404.39;109395;1274;22574;-67
2022/09/25 01:09:00;;;;;;;5.70;3.90;;;;;;;6.98;85.00;99406.00;109389;1274;22466;-66
2022/09/25 01:11:29;;;;;;;4.40;3.50;;;;;;;6.98;85.01;99409.39;109113;1274;138961;-66
2022/09/25 01:13:57;;;;;;;4.30;3.20;;;;;;;6.96;84.83;99412.54;109473;1274;22457;-66
2022/09/25 01:16:48;;;;;;;4.90;3.70;;;;;;;6.95;84.78;99413.98;109200;1274;138324;-66
2022/09/25 01:19:21;;;;;;;5.30;3.40;;;;;;;6.93;84.75;99419.14;109311;1274;22463;-66
2022/09/25 01:21:49;;;;;;;4.10;3.10;;;;;;;6.90;84.88;99412.54;109430;1273;22489;-67
2022/09/25 01:24:23;;;;;;;4.90;3.80;;;;;;;6.87;84.69;99409.30;109206;1274;137680;-66
2022/09/25 01:27:08;;;;;;;4.40;3.40;;;;;;;6.83;84.81;99413.70;109373;1274;22488;-67
2022/09/25 01:29:36;;;;;;;4.20;3.10;;;;;;;6.79;85.01;99413.13;109393;1273;139634;-67
2022/09/25 01:32:12;;;;;;;6.00;3.60;;;;;;;6.77;85.20;99412.88;109454;1273;23577;-67
2022/09/25 01:34:46;;;;;;;8.90;3.10;;;;;;;6.74;85.36;99409.62;109143;1274;139153;-68
2022/09/25 01:37:39;;;;;;;5.20;3.80;;;;;;;6.72;85.57;99414.36;109411;1274;22409;-67
2022/09/25 01:40:07;;;;;;;4.70;3.00;;;;;;;6.71;85.21;99411.99;109337;1274;138125;-66
2022/09/25 01:42:56;;;;;;;5.20;3.20;;;;;;;6.70;85.59;99413.98;109473;1274;23357;-67
2022/09/25 01:45:28;;;;;;;3.10;2.80;;;;;;;6.67;85.63;99406.48;109299;1274;22414;-68
2022/09/25 01:47:55;;;;;;;4.20;2.90;;;;;;;6.66;85.48;99408.71;109190;1274;138105;-68
2022/09/25 01:50:26;;;;;;;5.20;3.40;;;;;;;6.65;85.70;99410.15;109384;1274;22464;-67
2022/09/25 01:52:55;;;;;;;3.70;2.90;;;;;;;6.63;85.58;99407.11;109124;1274;138412;-68
2022/09/25 01:55:26;;;;;;;4.10;3.10;;;;;;;6.62;85.77;99408.55;109338;1274;22450;-68
2022/09/25 01:58:02;;;;;;;4.90;3.10;;;;;;;6.60;85.86;99410.33;109397;1274;138866;-67
2022/09/25 02:00:28;;;;;;;5.20;3.90;;;;;;;6.58;85.93;99411.52;109376;1273;23234;-68
2022/09/25 02:02:59;;;;;;;7.10;4.00;;;;;;;6.58;85.93;99413.78;109309;1274;22398;-67
2022/09/25 02:05:31;;;;;;;5.90;4.20;;;;;;;6.56;86.16;99414.27;109345;1274;138411;-68
2022/09/25 02:08:00;;;;;;;7.30;3.50;;;;;;;6.55;86.08;99409.38;109291;1274;22462;-67
2022/09/25 02:10:34;;;;;;;5.30;3.50;;;;;;;6.52;86.24;99412.98;109179;1274;139042;-67
2022/09/25 02:13:12;;;;;;;5.50;3.70;;;;;;;6.51;86.20;99418.05;109446;1274;22441;-67
2022/09/25 02:15:43;;;;;;;5.40;3.50;;;;;;;6.50;86.42;99415.20;109490;1274;22455;-67
2022/09/25 02:22:37;;;;;;;6.50;3.70;;;;;;;6.47;86.55;99412.88;101841;1310;545504;-65
2022/09/25 02:25:10;;;;;;;5.80;3.70;;;;;;;6.44;86.52;99418.06;104043;1287;24317;-65
2022/09/25 02:27:37;;;;;;;4.90;3.70;;;;;;;6.43;86.76;99415.65;103725;1287;23088;-67
2022/09/25 02:30:04;;;;;;;8.80;4.20;;;;;;;6.41;86.59;99412.23;103765;1287;137421;-65
2022/09/25 02:32:31;;;;;;;7.60;3.80;;;;;;;6.41;86.73;99414.77;108169;1287;23376;-66
2022/09/25 02:35:01;;;;;;;7.70;3.60;;;;;;;6.38;86.61;99414.14;108235;1287;138971;-66
2022/09/25 02:37:28;;;;;;;6.90;3.90;;;;;;;6.36;86.90;99413.64;107502;1283;1221069;-66
2022/09/25 02:39:57;;;;;;;6.30;3.90;;;;;;;6.34;87.05;99413.98;106802;1286;139481;-64
2022/09/25 02:42:31;;;;;;;5.20;3.50;;;;;;;6.32;86.85;99413.43;104055;1286;24407;-65
2022/09/25 02:45:26;;;;;;;6.40;4.00;;;;;;;6.31;86.95;99414.06;108100;1287;22577;-66
2022/09/25 02:48:11;;;;;;;7.70;4.30;;;;;;;6.30;86.93;99411.76;108205;1286;138761;-66
2022/09/25 02:51:06;;;;;;;5.90;4.30;;;;;;;6.28;87.02;99414.86;108353;1286;22487;-66
2022/09/25 02:53:43;;;;;;;6.10;3.90;;;;;;;6.27;87.34;99410.01;108085;1285;137831;-66
2022/09/25 02:56:19;;;;;;;7.00;5.00;;;;;;;6.25;87.28;99408.86;108229;1286;22436;-66
2022/09/25 02:58:49;;;;;;;8.00;5.10;;;;;;;6.24;87.57;99413.50;107957;1287;138723;-66
2022/09/25 03:01:17;;;;;;;7.70;5.10;;;;;;;6.24;87.49;99411.00;107939;1287;22561;-66
2022/09/25 03:03:44;;;;;;;6.70;4.50;;;;;;;6.24;87.76;99410.75;107830;1287;22482;-65
2022/09/25 03:06:11;;;;;;;9.30;6.60;;;;;;;6.25;87.49;99406.86;107944;1287;137574;-65
2022/09/25 03:08:42;;;;;;;8.60;6.60;;;;;;;6.26;87.43;99409.48;108182;1287;23556;-65
2022/09/25 03:11:11;;;;;;;9.70;6.60;;;;;;;6.26;87.42;99405.69;107712;1288;138200;-65
2022/09/25 03:13:38;;;;;;;7.30;5.60;;;;;;;6.26;87.48;99408.94;108132;1286;22507;-65
2022/09/25 03:16:43;;;;;;;7.70;5.30;;;;;;;6.25;87.49;99404.86;107927;1287;139585;-65
2022/09/25 03:19:10;;;;;;;8.20;6.70;;;;;;;6.25;87.44;99411.52;108257;1286;22480;-65
2022/09/25 03:21:37;;;;;;;6.40;5.00;;;;;;;6.26;87.58;99406.46;108276;1287;22506;-65
2022/09/25 03:24:04;;;;;;;8.60;4.90;;;;;;;6.27;87.64;99408.16;108483;1282;137982;-65
2022/09/25 03:26:30;;;;;;;;;;;;;;;6.27;87.37;99418.62;108514;1283;23186;-65
2022/09/25 03:29:00;;;;;;;7.00;4.20;;;;;;;6.27;87.65;99422.28;108315;1284;124116;-65
2022/09/25 03:31:28;;;;;;;4.70;3.40;;;;;;;6.25;87.44;99423.80;108415;1284;22561;-65
2022/09/25 03:33:55;;;;;;;7.30;5.10;;;;;;;6.24;87.40;99423.41;108283;1284;140520;-65
2022/09/25 03:36:23;;;;;;;9.20;7.40;;;;;;;6.23;87.38;99426.49;108370;1282;23436;-65
2022/09/25 03:38:52;;;;;;;8.40;4.80;;;;;;;6.21;87.29;99426.79;108354;1284;23280;-65
2022/09/25 03:41:20;;;;;;;7.90;6.80;;;;;;;6.20;87.42;99426.39;108416;1282;137751;-65
2022/09/25 03:43:50;;;;;;;8.10;5.50;;;;;;;6.19;87.42;99426.09;108343;1284;22466;-65
2022/09/25 03:46:18;;;;;;;6.10;4.50;;;;;;;6.18;87.52;99426.77;108301;1284;137799;-65
2022/09/25 03:48:45;;;;;;;6.60;3.80;;;;;;;6.18;87.74;99429.48;108415;1283;23441;-65
2022/09/25 03:51:12;;;;;;;4.40;3.30;;;;;;;6.18;87.68;99432.64;108421;1284;22479;-65
2022/09/25 03:53:39;;;;;;;8.30;4.40;;;;;;;6.19;87.60;99433.02;108400;1282;138876;-65
2022/09/25 03:56:10;;;;;;;7.10;4.30;;;;;;;6.20;87.16;99434.67;108380;1284;22512;-65
2022/09/25 03:58:37;;;;;;;15.40;9.30;;;;;;;6.21;87.45;99437.61;108243;1284;139360;-66
2022/09/25 04:01:04;;;;;;;;;;;;;;;6.23;87.43;99442.94;108538;1283;22540;-66
2022/09/25 04:03:31;;;;;;;11.40;7.70;;;;;;;6.22;87.12;99438.70;108483;1283;22478;-66
2022/09/25 04:06:02;;;;;;;11.10;7.20;;;;;;;6.21;87.36;99440.30;108372;1284;138753;-66
2022/09/25 04:08:30;;;;;;;6.20;5.10;;;;;;;6.22;87.41;99441.14;108475;1282;22461;-67
2022/09/25 04:10:58;;;;;;;7.60;5.40;;;;;;;6.21;87.58;99443.06;108382;1283;138430;-66
2022/09/25 04:13:28;;;;;;;9.70;5.60;;;;;;;6.20;87.37;99440.30;108442;1284;22488;-66
2022/09/25 04:15:56;;;;;;;6.30;4.40;;;;;;;6.20;87.32;99441.97;108302;1282;138622;-66
2022/09/25 04:18:23;;;;;;;5.90;4.30;;;;;;;6.19;87.53;99439.89;108424;1284;23374;-65
2022/09/25 04:20:50;;;;;;;5.90;4.00;;;;;;;6.21;87.48;99445.61;108261;1284;22509;-65
2022/09/25 04:23:17;;;;;;;7.00;5.10;;;;;;;6.21;87.41;99445.83;108339;1282;138901;-66
2022/09/25 04:25:44;;;;;;;9.20;4.90;;;;;;;6.22;87.59;99443.63;108465;1284;22560;-66
2022/09/25 04:28:11;;;;;;;6.40;4.40;;;;;;;6.23;87.58;99446.48;108291;1284;138801;-66
2022/09/25 04:30:38;;;;;;;;;;;;;;;6.25;87.57;99444.73;108436;1284;22486;-66
2022/09/25 04:35:50;;;;;;;8.50;4.30;;;;;;;6.26;87.52;99450.44;108778;1279;137368;-66
2022/09/25 04:38:16;;;;;;;6.50;4.50;;;;;;;6.27;87.71;99450.63;109024;1277;23291;-66
2022/09/25 04:40:44;;;;;;;8.10;5.60;;;;;;;6.28;87.81;99449.70;108842;1277;137519;-66
2022/09/25 04:43:11;;;;;;;7.30;5.10;;;;;;;6.30;87.96;99452.52;109064;1277;22266;-66
2022/09/25 04:45:38;;;;;;;8.10;5.70;;;;;;;6.33;88.00;99449.92;109039;1277;22465;-66
2022/09/25 04:48:05;;;;;;;6.40;5.40;;;;;;;6.35;87.91;99451.00;108911;1279;139197;-66
2022/09/25 04:50:32;;;;;;;;;;;;;;;6.37;87.75;99448.12;109107;1277;23160;-66
2022/09/25 04:53:01;;;;;;;10.10;4.10;;;;;;;6.41;87.91;99456.02;108968;1277;124317;-66
2022/09/25 04:55:28;;;;;;;;;;;;;;;6.44;87.51;99461.24;109075;1277;23247;-66
2022/09/25 04:57:57;;;;;;;6.00;4.30;;;;;;;6.47;87.74;99455.20;108899;1278;124763;-66
2022/09/25 05:00:29;;;;;;;7.40;5.20;;;;;;;6.50;87.86;99459.33;109109;1277;22509;-66
2022/09/25 05:02:56;;;;;;;6.10;4.40;;;;;;;6.54;87.69;99458.77;108998;1277;22456;-66
2022/09/25 05:05:27;;;;;;;8.90;4.50;;;;;;;6.59;88.20;99461.78;108951;1277;138012;-66
2022/09/25 05:07:54;;;;;;;5.40;4.40;;;;;;;6.64;87.85;99464.77;108974;1277;22473;-66
2022/09/25 05:10:22;;;;;;;7.10;4.00;;;;;;;6.70;87.78;99466.92;109002;1277;138632;-66
2022/09/25 05:12:54;;;;;;;6.80;3.90;;;;;;;6.75;87.97;99465.05;109013;1278;22472;-66
2022/09/25 05:15:21;;;;;;;5.30;3.60;;;;;;;6.81;87.81;99471.56;108898;1279;22523;-66
2022/09/25 05:17:48;;;;;;;6.20;4.30;;;;;;;6.88;87.50;99468.05;108931;1277;139215;-66
2022/09/25 05:20:15;;;;;;;;;;;;;;;6.93;87.63;99470.42;108995;1277;22516;-66
2022/09/25 05:22:43;;;;;;;;;;;;;;;6.97;87.51;99473.56;108814;1277;124286;-65
2022/09/25 05:25:09;;;;;;;4.80;3.60;;;;;;;7.00;87.43;99473.14;108940;1277;23758;-68
2022/09/25 05:27:36;;;;;;;6.10;4.10;;;;;;;7.04;87.38;99476.13;108894;1278;22244;-65
2022/09/25 05:30:03;;;;;;;;;;;;;;;7.09;87.14;99478.55;108821;1277;137917;-65
2022/09/25 05:32:30;;;;;;;6.70;4.00;;;;;;;7.13;86.76;99479.40;109032;1277;23213;-66
2022/09/25 05:34:56;;;;;;;6.40;3.80;;;;;;;7.17;86.82;99473.70;108687;1279;140983;-67
2022/09/25 05:37:23;;;;;;;7.40;4.20;;;;;;;7.22;86.76;99476.48;108846;1278;22239;-67
2022/09/25 05:39:50;;;;;;;6.50;5.20;;;;;;;7.27;86.65;99471.21;107788;1278;24312;-65
2022/09/25 05:42:18;;;;;;;5.40;4.30;;;;;;;7.33;86.39;99472.81;108673;1277;137797;-66
2022/09/25 05:44:45;;;;;;;7.80;4.40;;;;;;;7.39;86.36;99468.92;109009;1277;23662;-67
2022/09/25 05:47:11;;;;;;;8.60;4.30;;;;;;;7.47;86.50;99474.42;108933;1277;138908;-68
2022/09/25 05:49:38;;;;;;;9.40;5.80;;;;;;;7.55;86.43;99473.88;108824;1279;22469;-67
2022/09/25 05:52:05;;;;;;;;;;;;;;;7.64;86.10;99474.16;108923;1276;137810;-67
2022/09/25 05:54:32;;;;;;;9.20;4.50;;;;;;;7.73;86.18;99470.60;108872;1277;23267;-68
2022/09/25 05:56:58;;;;;;;7.20;4.50;;;;;;;7.81;85.86;99472.34;108892;1277;22495;-67
2022/09/25 05:59:25;;;;;;;;;;;;;;;7.90;85.66;99470.61;108771;1279;137910;-66
2022/09/25 06:01:52;;;;;;;7.50;4.30;;;;;;;7.99;85.47;99475.62;108803;1279;23352;-66
2022/09/25 06:04:19;;;;;;;;;;;;;;;8.08;85.00;99474.58;108908;1277;137961;-67
2022/09/25 06:06:45;;;;;;;6.50;4.80;;;;;;;8.16;84.89;99479.63;108888;1279;22590;-66
2022/09/25 06:09:12;;;;;;;5.80;4.10;;;;;;;8.24;84.80;99479.11;109032;1277;22482;-67
2022/09/25 06:11:40;;;;;;;6.70;4.00;;;;;;;8.33;84.73;99475.52;108806;1278;137976;-67
2022/09/25 06:14:06;;;;;;;6.70;3.90;;;;;;;8.43;84.54;99477.11;108827;1278;22470;-67
2022/09/25 06:16:33;;;;;;;7.00;3.50;;;;;;;8.53;84.39;99477.45;108582;1279;138858;-65
2022/09/25 06:19:00;;;;;;;6.10;3.90;;;;;;;8.63;84.22;99477.88;108920;1279;22464;-67
2022/09/25 06:21:27;;;;;;;9.10;3.90;;;;;;;8.74;84.07;99478.34;108902;1279;23130;-67
2022/09/25 06:23:54;;;;;;;;;;;;;;;8.83;83.62;99482.60;108886;1277;139024;-67
2022/09/25 06:26:22;;;;;;;6.40;4.60;;;;;;;8.91;83.33;99483.01;109021;1277;23309;-66
2022/09/25 06:28:48;;;;;;;6.80;3.90;;;;;;;8.98;83.08;99485.48;108738;1277;137964;-68
2022/09/25 06:31:15;;;;;;;5.30;3.70;;;;;;;9.06;82.96;99488.23;109116;1277;22385;-67
2022/09/25 06:33:42;;;;;;;6.50;4.70;;;;;;;9.15;82.80;99489.80;109019;1277;23665;-68
2022/09/25 06:36:09;;;;;;;6.60;4.30;;;;;;;9.26;82.75;99491.61;108921;1277;138359;-67
2022/09/25 06:38:36;;;;;;;9.20;5.10;;;;;;;9.34;82.19;99488.98;109081;1277;22442;-67
2022/09/25 06:41:02;;;;;;;;;;;;;;;9.43;81.87;99490.98;108910;1277;138742;-66
2022/09/25 06:43:30;;;;;;;7.40;4.50;;;;;;;9.51;81.81;99489.42;109098;1277;22463;-66
2022/09/25 06:46:03;;;;;;;6.40;4.30;;;;;;;9.59;81.55;99494.54;109007;1278;22394;-67
2022/09/25 06:48:30;;;;;;;8.50;5.00;;;;;;;9.69;81.32;99494.10;108876;1277;22452;-67
2022/09/25 06:50:58;;;;;;;;;;;;;;;9.77;81.02;99494.66;109136;1277;23315;-66
2022/09/25 06:53:25;;;;;;;7.20;4.20;;;;;;;9.86;80.80;99493.06;108966;1277;125560;-66
2022/09/25 06:55:54;;;;;;;;;;;;;;;9.93;80.75;99488.86;109113;1277;22512;-66
2022/09/25 06:58:21;;;;;;;6.90;4.30;;;;;;;10.01;80.56;99490.85;108896;1277;125368;-66
2022/09/25 07:00:49;;;;;;;8.10;5.20;;;;;;;10.09;80.24;99487.52;108929;1279;23447;-66
2022/09/25 07:06:02;;;;;;;11.20;6.20;;;;;;;10.27;79.53;99489.41;108685;1279;138333;-67
2022/09/25 07:08:29;;;;;;;6.80;4.90;;;;;;;10.36;79.73;99488.36;108948;1277;22766;-65
2022/09/25 07:10:56;;;;;;;;;;;;;;;10.45;79.12;99488.73;108967;1277;139326;-66
2022/09/25 07:13:28;;;;;;;12.90;4.30;;;;;;;10.55;78.83;99485.06;108970;1277;23140;-66
2022/09/25 07:15:59;;;;;;;6.00;4.40;;;;;;;10.64;78.12;99489.99;108985;1277;22467;-66
2022/09/25 07:18:27;;;;;;;8.50;4.70;;;;;;;10.73;77.50;99487.40;109002;1277;23304;-66
2022/09/25 07:21:02;;;;;;;6.40;4.50;;;;;;;10.82;77.60;99489.44;109038;1277;22705;-66
2022/09/25 07:23:30;;;;;;;7.40;4.50;;;;;;;10.90;77.35;99487.98;108983;1277;138851;-67
2022/09/25 07:26:06;;;;;;;7.20;4.40;;;;;;;11.00;77.19;99487.01;109284;1274;22563;-66
2022/09/25 07:28:33;;;;;;;7.50;3.60;;;;;;;11.11;76.72;99486.27;109090;1275;138208;-66
2022/09/25 07:31:09;;;;;;;8.50;4.10;;;;;;;11.18;76.13;99489.27;109272;1274;22536;-66
2022/09/25 07:33:36;;;;;;;7.70;4.10;;;;;;;11.27;75.81;99488.08;109276;1274;22424;-66
2022/09/25 07:36:03;;;;;;;6.80;4.40;;;;;;;11.37;75.34;99483.44;109163;1274;137588;-66
2022/09/25 07:38:29;;;;;;;5.30;3.70;;;;;;;11.44;74.03;99486.91;109264;1274;22423;-66
2022/09/25 07:40:56;;;;;;;;;;;;;;;11.49;73.45;99480.63;109185;1274;137618;-67
2022/09/25 07:43:23;;;;;;;6.30;4.10;;;;;;;11.54;73.27;99477.42;109229;1274;22455;-67
2022/09/25 07:45:53;;;;;;;7.00;3.90;;;;;;;11.58;72.57;99473.11;109230;1276;22478;-67
2022/09/25 07:48:20;;;;;;;4.70;3.20;;;;;;;11.63;72.09;99480.80;109168;1274;137099;-66
2022/09/25 07:50:50;;;;;;;8.40;3.90;;;;;;;11.66;71.24;99478.09;109186;1274;22482;-67
2022/09/25 07:53:19;;;;;;;6.70;3.70;;;;;;;11.69;71.28;99479.55;109140;1275;138494;-66
2022/09/25 07:55:46;;;;;;;4.50;3.10;;;;;;;11.73;71.06;99477.34;109188;1275;22469;-66
2022/09/25 07:58:13;;;;;;;;;;;;;;;11.76;70.22;99478.74;109123;1276;138272;-66
2022/09/25 08:00:39;;;;;;;5.50;4.10;;;;;;;11.81;70.94;99479.10;109344;1274;22496;-66
2022/09/25 08:03:07;;;;;;;4.20;2.90;;;;;;;11.87;70.30;99478.20;109392;1274;22621;-67
2022/09/25 08:05:34;;;;;;;6.80;2.10;;;;;;;11.94;69.72;99478.06;109132;1275;139790;-65
2022/09/25 08:08:01;;;;;;;4.00;2.50;;;;;;;12.01;69.04;99477.20;109173;1275;22442;-65
2022/09/25 08:10:27;;;;;;;5.20;3.00;;;;;;;12.07;69.12;99471.88;109086;1275;138802;-65
2022/09/25 08:12:55;;;;;;;4.80;2.90;;;;;;;12.13;68.37;99468.11;109328;1274;22475;-65
2022/09/25 08:15:21;;;;;;;3.40;2.50;;;;;;;12.16;67.77;99473.52;109213;1276;22548;-65
2022/09/25 08:17:48;;;;;;;;;;;;;;;12.19;68.21;99471.14;109112;1275;137346;-65
2022/09/25 08:20:15;;;;;;;3.70;2.50;;;;;;;12.23;67.82;99470.78;109142;1274;23586;-65
2022/09/25 08:22:41;;;;;;;;;;;;;;;12.28;68.14;99474.98;109163;1274;139151;-65
2022/09/25 08:25:08;;;;;;;2.70;2.30;;;;;;;12.33;67.72;99474.05;109134;1274;23332;-65
2022/09/25 08:27:39;;;;;;;3.80;2.70;;;;;;;12.38;66.85;99473.80;109252;1274;22494;-65
2022/09/25 08:30:08;;;;;;;4.10;2.60;;;;;;;12.42;66.64;99476.48;109052;1274;137699;-66
2022/09/25 08:32:35;;;;;;;3.00;2.30;;;;;;;12.44;66.30;99475.88;109187;1274;22478;-66
2022/09/25 08:35:03;;;;;;;4.70;3.10;;;;;;;12.45;65.92;99473.52;109149;1274;137562;-66
2022/09/25 08:37:32;;;;;;;6.40;2.90;;;;;;;12.46;65.93;99470.41;109281;1274;23457;-66
2022/09/25 08:39:59;;;;;;;5.50;3.20;;;;;;;12.47;65.92;99462.16;109027;1275;138495;-66
2022/09/25 08:42:31;;;;;;;3.70;2.80;;;;;;;12.50;65.90;99461.96;109221;1275;22538;-68
2022/09/25 08:50:35;;;;;;;9.50;2.50;;;;;;;12.62;64.79;99455.23;109287;1274;23714;-67
2022/09/25 08:53:06;;;;;;;3.10;2.40;;;;;;;12.68;65.37;99455.52;109173;1274;137352;-67
2022/09/25 08:58:28;;;;;;;3.50;2.10;;;;;;;12.85;63.82;99460.04;109093;1274;137733;-67
2022/09/25 09:01:03;;;;;;;2.80;2.20;;;;;;;12.91;62.16;99455.34;109135;1274;23587;-67
2022/09/25 09:03:31;;;;;;;2.40;2.00;;;;;;;12.94;62.22;99452.77;109111;1275;22443;-67
2022/09/25 09:06:03;;;;;;;2.40;1.70;;;;;;;12.97;61.48;99452.39;109123;1274;137688;-67
2022/09/25 09:08:32;;;;;;;3.00;2.20;;;;;;;13.02;61.69;99454.17;109127;1275;22563;-68
2022/09/25 09:11:04;;;;;;;2.30;2.10;;;;;;;13.05;61.19;99453.14;109059;1274;138305;-67
2022/09/25 09:13:56;;;;;;;5.50;1.70;;;;;;;13.04;60.25;99449.63;109169;1275;22269;-67
2022/09/25 09:16:25;;;;;;;2.20;2.00;;;;;;;13.01;59.60;99448.32;109071;1275;140390;-67
2022/09/25 09:18:53;;;;;;;2.90;1.70;;;;;;;12.99;59.74;99449.69;109321;1274;23451;-67
2022/09/25 09:21:33;;;;;;;4.20;2.30;;;;;;;12.98;60.03;99443.80;109125;1275;23095;-67
2022/09/25 09:24:12;;;;;;;2.00;1.70;;;;;;;12.99;60.31;99444.77;109194;1274;137392;-67
2022/09/25 09:26:48;;;;;;;2.60;2.10;;;;;;;13.03;60.87;99437.27;109258;1274;22241;-67
2022/09/25 09:29:45;;;;;;;2.50;1.90;;;;;;;13.09;60.94;99436.13;109006;1274;137531;-67
2022/09/25 09:32:27;;;;;;;2.30;1.80;;;;;;;13.17;61.34;99432.18;109375;1274;22431;-67
2022/09/25 09:35:12;;;;;;;2.80;2.10;;;;;;;13.25;61.23;99430.09;109077;1275;137537;-67
2022/09/25 09:38:00;;;;;;;4.00;2.00;;;;;;;13.33;61.21;99421.52;109354;1274;22497;-67
2022/09/25 09:40:50;;;;;;;2.60;1.70;;;;;;;13.42;61.42;99429.44;109105;1276;137580;-67
2022/09/25 09:43:36;;;;;;;2.60;2.00;;;;;;;13.50;60.02;99426.18;109175;1275;22559;-66
2022/09/25 09:46:03;;;;;;;2.40;1.80;;;;;;;13.58;59.02;99423.85;109167;1275;137730;-66
2022/09/25 09:48:38;;;;;;;1.90;1.70;;;;;;;13.63;58.78;99425.53;109411;1274;22515;-66
2022/09/25 09:51:12;;;;;;;2.30;2.00;;;;;;;13.65;58.56;99422.45;109190;1274;23203;-67
2022/09/25 09:53:43;;;;;;;6.90;3.00;;;;;;;13.68;58.83;99422.39;109083;1274;137858;-66
2022/09/25 09:56:10;;;;;;;2.60;1.90;;;;;;;13.72;59.06;99423.39;109123;1276;22443;-67
2022/09/25 09:58:53;;;;;;;2.00;1.50;;;;;;;13.80;58.04;99427.15;109149;1276;137614;-67
2022/09/25 10:01:22;;;;;;;4.00;1.80;;;;;;;13.89;57.68;99422.38;109251;1275;22445;-66
2022/09/25 10:04:15;;;;;;;2.00;1.80;;;;;;;13.97;57.15;99417.09;109081;1274;138770;-67
2022/09/25 10:07:07;;;;;;;4.70;1.60;;;;;;;14.02;56.82;99412.50;109045;1275;22500;-67
2022/09/25 10:09:36;;;;;;;2.70;2.40;;;;;;;14.08;56.32;99412.58;109273;1274;22469;-67
2022/09/25 10:12:06;;;;;;;2.90;2.10;;;;;;;14.11;55.71;99409.02;109088;1274;138164;-68
2022/09/25 10:14:37;;;;;;;4.10;2.20;;;;;;;14.11;55.43;99414.05;109224;1274;22475;-68
2022/09/25 10:17:04;;;;;;;4.40;2.70;;;;;;;14.11;55.02;99412.23;109115;1274;138420;-68
2022/09/25 10:19:38;;;;;;;3.50;2.00;;;;;;;14.10;55.26;99410.61;109204;1273;22421;-67
2022/09/25 10:22:15;;;;;;;3.20;1.90;;;;;;;14.09;55.25;99413.84;108949;1276;138506;-66
2022/09/25 10:24:52;;;;;;;2.90;1.70;;;;;;;14.07;55.17;99409.80;109218;1274;22497;-67
2022/09/25 10:27:21;;;;;;;2.50;1.80;;;;;;;14.06;54.83;99410.08;109243;1275;23448;-67
2022/09/25 10:30:00;;;;;;;5.10;2.30;;;;;;;14.03;55.05;99408.93;109141;1274;137327;-67
2022/09/25 10:32:27;;;;;;;1.70;1.30;;;;;;;14.03;55.22;99406.86;109265;1274;22557;-67
2022/09/25 10:34:54;;;;;;;6.00;1.90;;;;;;;14.05;55.27;99405.15;108946;1274;137306;-68
2022/09/25 10:37:20;;;;;;;2.90;1.60;;;;;;;14.09;55.46;99401.56;109139;1275;22486;-68
2022/09/25 10:40:10;;;;;;;3.20;2.50;;;;;;;14.16;55.48;99399.98;108093;1274;25082;-64
2022/09/25 10:42:39;;;;;;;2.80;2.30;;;;;;;14.24;55.14;99400.04;109181;1274;22526;-68
2022/09/25 10:45:21;;;;;;;2.00;1.70;;;;;;;14.30;54.92;99397.63;109169;1275;23439;-67
2022/09/25 10:51:04;;;;;;;3.50;2.20;;;;;;;14.35;54.32;99391.18;108785;1276;22565;-68
2022/09/25 10:53:31;;;;;;;6.10;3.70;;;;;;;14.35;54.72;99392.40;109136;1275;137313;-68
2022/09/25 10:56:06;;;;;;;5.80;3.40;;;;;;;14.33;54.30;99391.42;109274;1274;23714;-68
2022/09/25 10:58:38;;;;;;;3.70;1.90;;;;;;;14.29;54.08;99396.44;109059;1275;138284;-68
2022/09/25 11:01:06;;;;;;;4.10;2.50;;;;;;;14.25;54.02;99392.09;109285;1274;23330;-68
2022/09/25 11:03:34;;;;;;;2.90;2.50;;;;;;;14.22;54.56;99388.21;109233;1274;23122;-68
2022/09/25 11:06:03;;;;;;;2.40;1.80;;;;;;;14.22;54.72;99383.27;109118;1274;137908;-68
2022/09/25 11:08:33;;;;;;;2.40;1.90;;;;;;;14.23;53.59;99382.62;109304;1274;22460;-68
2022/09/25 11:11:01;;;;;;;1.70;1.50;;;;;;;14.21;53.49;99379.95;108905;1275;138312;-68
2022/09/25 11:13:32;;;;;;;1.60;1.40;;;;;;;14.19;54.08;99374.70;109274;1274;22421;-68
2022/09/25 11:16:00;;;;;;;3.80;1.50;;;;;;;14.23;53.16;99373.85;109070;1275;139181;-67
2022/09/25 11:18:38;;;;;;;1.90;1.50;;;;;;;14.26;53.33;99369.55;109236;1275;22559;-67
2022/09/25 11:21:16;;;;;;;4.10;1.50;;;;;;;14.32;53.73;99371.73;109066;1276;22494;-67
2022/09/25 11:23:47;;;;;;;;;;;;;;;14.39;53.52;99371.00;109008;1276;137307;-68
2022/09/25 11:26:21;;;;;;;1.90;1.70;;;;;;;14.45;53.44;99370.13;109254;1276;23623;-68
2022/09/25 11:29:04;;;;;;;4.20;2.20;;;;;;;14.53;53.00;99364.60;109184;1274;137410;-70
2022/09/25 11:31:36;;;;;;;2.20;1.80;;;;;;;14.61;52.79;99367.41;109234;1274;23259;-67
2022/09/25 11:34:43;;;;;;;2.80;2.10;;;;;;;14.69;53.02;99362.25;109004;1274;138059;-67
2022/09/25 11:37:16;;;;;;;3.50;1.90;;;;;;;14.77;53.03;99363.81;108561;1281;23782;-67
2022/09/25 11:42:58;;;;;;;2.80;2.30;;;;;;;14.80;52.74;99369.27;108499;1281;22671;-67
2022/09/25 11:45:29;;;;;;;2.80;2.20;;;;;;;14.76;52.70;99365.36;108401;1281;22546;-67
2022/09/25 11:48:22;;;;;;;3.30;2.70;;;;;;;14.72;52.72;99362.37;108400;1281;138198;-67
2022/09/25 11:51:15;;;;;;;4.10;2.80;;;;;;;14.70;53.17;99360.48;108141;1287;22494;-67
2022/09/25 11:54:21;;;;;;;4.00;2.90;;;;;;;14.65;53.32;99363.87;108017;1286;138407;-68
2022/09/25 11:57:10;;;;;;;3.40;2.20;;;;;;;14.59;53.25;99365.30;108013;1287;22282;-66
2022/09/25 11:59:49;;;;;;;2.90;2.20;;;;;;;14.53;53.45;99365.52;107719;1287;137243;-66
2022/09/25 12:02:43;;;;;;;3.20;1.90;;;;;;;14.53;53.34;99368.48;108090;1287;22449;-67
2022/09/25 12:05:20;;;;;;;7.80;2.90;;;;;;;14.54;53.39;99366.89;107968;1287;138731;-68
2022/09/25 12:07:51;;;;;;;3.60;3.10;;;;;;;14.55;53.50;99365.73;108055;1287;22455;-67
2022/09/25 12:10:24;;;;;;;4.80;2.40;;;;;;;14.56;53.44;99369.35;107904;1287;137744;-67
2022/09/25 12:12:59;;;;;;;2.80;2.30;;;;;;;14.55;53.58;99363.98;107955;1287;23245;-68
2022/09/25 12:15:32;;;;;;;3.70;2.00;;;;;;;14.53;53.74;99363.83;108476;1281;22554;-67
2022/09/25 12:18:06;;;;;;;2.90;1.80;;;;;;;14.50;53.87;99364.83;108465;1281;137911;-65